Grand Lake, CO

10:51 PM MDT on June 01, 2015 (GMT -0600)
MesoWest | | Change Station
CLOSE
Current Station
Personal Weather Station
Location: Grand Lake, CO
Elevation: 9029 ft
Nearby Weather Stations

Elev 9029 ft 40.40 °N, 105.85 °W | Updated 10 days ago

Partly Cloudy
Partly Cloudy
50 °F
Feels Like 50 °F
N
6
Wind Variable Wind from SE
Gusts mph

Today
High -- | Low -- °F
--% Chance of Precip.
Yesterday
High -- | Low -- °F
Precip. -- in
5:35 AM 8:27 PM
Full, 100% visible
Pressure 30.16 in
Visibility 10.0 miles
Clouds Scattered Clouds 11000 ft
Dew Point 40 °F
Humidity 68%
Rainfall in
Snow Depth Not available.
UV 0 out of 12
Pollen 8.30 out of 12
Air Quality Not available.
Flu Activity Sporadic
METAR K20V 020435Z AUTO 00000KT 10SM SCT110 12/06 A3016 RMK AO2

More Conditions Fewer Conditions

Pressure 30.16 in
Visibility 10.0 miles
Clouds Scattered Clouds 11000 ft
Dew Point 40 °F
Humidity 68%
Rainfall in
Snow Depth Not available.
UV 0 out of 12
Pollen 8.30 out of 12
Air Quality Not available.
Flu Activity Sporadic
METAR K20V 020435Z AUTO 00000KT 10SM SCT110 12/06 A3016 RMK AO2

More Conditions Fewer Conditions

Nowcast | as of 8:53 PM MDT on June 1, 2015

Scattered showers will gradually end across Jackson and grand counties by 11 PM. Expect brief light rain and gusty winds to 30 mph.

×

10-Day Weather Forecast

Almanac

Astronomy

Jun. 01, 2015 Rise Set
Actual Time
Civil Twilight
Nautical Twilight
Astronomical Twilight
Moon
Length of Visible Light
Length of Day
Tomorrow will be .
, % of the Moon is Illuminated

Today's Extremes

State Highs State Lows

Community

WunderPhotos

Upload Photos

1,825,913 photos uploaded!

WunderBlogs® & News

Nearby

Air Quality

  Air Quality AQ Index Pollutant
Not available.

Snow Depth

Station Depth Elevation

Earthquake Activity

City Distance Mag. Time & Date
Minimum magnitude displayed is 2.5.

Coastal Water Temperatures

Place Temperature

Stations

Nearby Weather Stations

Station Location Temp. Windchill Dew Point Humidity Wind Precip. Elev Updated Type